createdAt,value
2022-09-28T00:01:19.311Z,37.50
2022-09-28T00:03:48.492Z,37.70
2022-09-28T00:06:21.579Z,41.80
2022-09-28T00:08:52.103Z,43.80
2022-09-28T00:11:21.428Z,39.30
2022-09-28T00:13:52.025Z,44.10
2022-09-28T00:18:50.740Z,49.70
2022-09-28T00:21:24.541Z,51.10
2022-09-28T00:24:12.701Z,43.30
2022-09-28T00:26:55.503Z,40.10
2022-09-28T00:29:33.534Z,40.70
2022-09-28T00:32:12.898Z,41.60
2022-09-28T00:34:45.438Z,42.20
2022-09-28T00:37:13.709Z,40.00
2022-09-28T00:39:41.286Z,40.00
2022-09-28T00:42:20.369Z,40.70
2022-09-28T00:44:49.042Z,42.90
2022-09-28T00:47:40.566Z,39.80
2022-09-28T00:50:28.727Z,45.80
2022-09-28T00:53:10.524Z,42.50
2022-09-28T00:56:10.705Z,43.00
2022-09-28T00:58:47.904Z,42.10
2022-09-28T01:01:15.518Z,41.60
2022-09-28T01:03:48.179Z,39.30
2022-09-28T01:06:23.965Z,40.00
2022-09-28T01:08:55.901Z,35.20
2022-09-28T01:11:24.329Z,35.30
2022-09-28T01:13:54.547Z,35.60
2022-09-28T01:16:47.505Z,38.80
2022-09-28T01:20:16.258Z,40.00
2022-09-28T01:23:12.210Z,38.40
2022-09-28T01:26:18.833Z,36.10
2022-09-28T01:28:47.777Z,42.00
2022-09-28T01:31:16.173Z,33.80
2022-09-28T01:34:21.810Z,36.90
2022-09-28T01:36:53.396Z,30.70
2022-09-28T01:39:43.821Z,33.70
2022-09-28T01:42:22.173Z,34.50
2022-09-28T01:44:51.904Z,32.50
2022-09-28T01:50:00.845Z,31.30
2022-09-28T01:52:43.028Z,34.40
2022-09-28T01:55:30.210Z,35.70
2022-09-28T01:58:13.462Z,34.00
2022-09-28T02:00:47.743Z,33.40
2022-09-28T02:03:24.232Z,42.60
2022-09-28T02:06:02.268Z,37.10
2022-09-28T02:08:36.274Z,36.70
2022-09-28T02:11:14.557Z,36.90
2022-09-28T02:14:03.062Z,31.40
2022-09-28T02:16:38.875Z,37.40
2022-09-28T02:19:10.668Z,34.00
2022-09-28T02:22:30.701Z,44.50
2022-09-28T02:25:09.517Z,41.60
2022-09-28T02:27:59.259Z,36.40
2022-09-28T02:30:30.098Z,39.60
2022-09-28T02:33:12.567Z,44.40
2022-09-28T02:35:42.542Z,41.60
2022-09-28T02:38:11.758Z,40.90
2022-09-28T02:40:40.161Z,39.60
2022-09-28T02:43:23.356Z,41.00
2022-09-28T02:46:04.162Z,41.30
2022-09-28T02:49:27.111Z,42.80
2022-09-28T02:52:44.736Z,41.30
2022-09-28T02:55:40.108Z,39.70
2022-09-28T02:59:06.674Z,39.90
2022-09-28T03:02:11.718Z,41.60
2022-09-28T03:05:02.801Z,39.80
2022-09-28T03:10:15.895Z,46.00
2022-09-28T03:12:46.167Z,43.20
2022-09-28T03:15:27.394Z,49.80
2022-09-28T03:17:56.345Z,44.30
2022-09-28T03:20:25.169Z,43.90
2022-09-28T03:23:19.743Z,47.50
2022-09-28T03:25:40.713Z,44.00
2022-09-28T03:28:08.272Z,49.60
2022-09-28T03:30:38.853Z,45.70
2022-09-28T03:33:06.605Z,37.60
2022-09-28T03:35:34.200Z,33.10
2022-09-28T03:38:01.687Z,42.40
2022-09-28T03:40:30.563Z,41.80
2022-09-28T03:42:59.666Z,38.20
2022-09-28T03:45:27.183Z,39.70
2022-09-28T03:47:55.198Z,38.60
2022-09-28T03:50:22.614Z,37.20
2022-09-28T03:52:50.149Z,36.10
2022-09-28T03:55:17.855Z,39.60
2022-09-28T03:57:45.391Z,39.50
2022-09-28T04:00:13.136Z,34.20
2022-09-28T04:02:43.304Z,35.70
2022-09-28T04:05:11.369Z,33.50
2022-09-28T04:07:39.278Z,35.90
2022-09-28T04:10:07.786Z,41.10
2022-09-28T04:12:35.167Z,31.60
2022-09-28T04:15:05.628Z,32.60
2022-09-28T04:17:37.796Z,31.40
2022-09-28T04:20:10.655Z,35.60
2022-09-28T04:22:41.867Z,32.10
2022-09-28T04:25:09.320Z,31.20
2022-09-28T04:27:56.612Z,29.00
2022-09-28T04:30:24.250Z,33.20
2022-09-28T04:32:53.004Z,34.90
2022-09-28T04:35:20.482Z,29.60
2022-09-28T04:37:48.194Z,31.80
2022-09-28T04:40:15.976Z,26.10
2022-09-28T04:42:43.678Z,31.60
2022-09-28T04:45:11.156Z,28.30
2022-09-28T04:47:43.113Z,32.00
2022-09-28T04:50:29.702Z,25.50
2022-09-28T04:53:18.029Z,24.60
2022-09-28T04:55:46.122Z,25.50
2022-09-28T04:58:13.697Z,28.40
2022-09-28T05:00:41.906Z,29.30
2022-09-28T05:03:47.575Z,30.70
2022-09-28T05:06:22.559Z,23.90
2022-09-28T05:08:57.118Z,28.70
2022-09-28T05:11:24.737Z,26.50
2022-09-28T05:13:52.727Z,22.30
2022-09-28T05:16:20.581Z,26.30
2022-09-28T05:19:06.654Z,24.80
2022-09-28T05:21:33.955Z,34.50
2022-09-28T05:24:06.783Z,22.00
2022-09-28T05:26:35.833Z,24.40
2022-09-28T05:29:03.186Z,23.60
2022-09-28T05:31:36.447Z,27.40
2022-09-28T05:34:11.492Z,22.20
2022-09-28T05:36:40.137Z,20.10
2022-09-28T05:39:09.229Z,21.10
2022-09-28T05:41:36.619Z,22.10
2022-09-28T05:44:03.927Z,20.60
2022-09-28T05:46:31.598Z,20.00
2022-09-28T05:49:00.889Z,24.20
2022-09-28T05:51:28.492Z,20.10
2022-09-28T05:53:57.505Z,19.50
2022-09-28T05:56:30.145Z,19.80
2022-09-28T05:58:58.235Z,21.70
2022-09-28T06:01:28.184Z,25.20
2022-09-28T06:03:57.556Z,22.00
2022-09-28T06:06:25.269Z,22.00
2022-09-28T06:08:52.904Z,22.30
2022-09-28T06:11:38.620Z,25.00
2022-09-28T06:14:57.352Z,23.30
2022-09-28T06:17:24.984Z,21.80
2022-09-28T06:20:12.354Z,27.00
2022-09-28T06:22:57.548Z,18.70
2022-09-28T06:25:27.246Z,18.70
2022-09-28T06:28:06.582Z,20.30
2022-09-28T06:30:37.921Z,18.10
2022-09-28T06:33:12.154Z,20.90
2022-09-28T06:35:40.148Z,18.70
2022-09-28T06:38:07.795Z,16.90
2022-09-28T06:40:35.852Z,13.70
2022-09-28T06:43:11.608Z,13.80
2022-09-28T06:45:57.695Z,13.80
2022-09-28T06:49:19.631Z,15.00
2022-09-28T06:52:40.541Z,15.80
2022-09-28T06:55:57.519Z,15.80
2022-09-28T06:58:26.453Z,14.30
2022-09-28T07:00:59.793Z,15.70
2022-09-28T07:03:29.230Z,16.50
2022-09-28T07:05:59.669Z,16.90
2022-09-28T07:09:06.062Z,13.50
2022-09-28T07:12:10.447Z,13.30
2022-09-28T07:15:24.816Z,11.90
2022-09-28T07:18:03.268Z,19.40
2022-09-28T07:20:43.537Z,18.00
2022-09-28T07:23:19.278Z,12.50
2022-09-28T07:26:08.184Z,14.80
2022-09-28T07:29:26.443Z,14.90
2022-09-28T07:32:12.461Z,12.40
2022-09-28T07:34:58.910Z,13.10
2022-09-28T07:37:45.613Z,13.40
2022-09-28T07:40:31.925Z,11.00
2022-09-28T07:43:06.682Z,13.40
2022-09-28T07:45:36.182Z,10.50
2022-09-28T07:48:03.924Z,14.20
2022-09-28T07:50:34.356Z,14.60
2022-09-28T07:53:28.089Z,9.80
2022-09-28T07:56:16.943Z,13.10
2022-09-28T07:58:53.234Z,11.00
2022-09-28T08:01:43.811Z,12.80
2022-09-28T08:04:14.241Z,9.90
2022-09-28T08:06:44.604Z,11.20
2022-09-28T08:09:13.573Z,13.70
2022-09-28T08:11:59.592Z,10.10
2022-09-28T08:14:47.526Z,17.20
2022-09-28T08:17:33.392Z,13.90
2022-09-28T08:20:24.496Z,12.50
2022-09-28T08:22:52.701Z,10.00
2022-09-28T08:25:20.779Z,9.10
2022-09-28T08:27:49.161Z,12.40
2022-09-28T08:30:16.967Z,8.00
2022-09-28T08:32:53.593Z,8.10
2022-09-28T08:35:40.809Z,13.60
2022-09-28T08:38:49.141Z,12.10
2022-09-28T08:41:38.637Z,13.50
2022-09-28T08:44:23.316Z,11.00
2022-09-28T08:48:26.624Z,10.30
2022-09-28T08:51:21.483Z,5.80
2022-09-28T08:54:16.233Z,12.00
2022-09-28T08:57:19.019Z,7.00
2022-09-28T08:59:50.883Z,7.00
2022-09-28T09:02:32.884Z,6.50
2022-09-28T09:08:49.600Z,13.10
2022-09-28T09:12:11.195Z,6.10
2022-09-28T09:15:38.440Z,11.20
2022-09-28T09:18:31.320Z,5.00
2022-09-28T09:21:39.788Z,3.80
2022-09-28T09:24:26.982Z,4.70
2022-09-28T09:27:28.257Z,3.90
2022-09-28T09:30:11.067Z,3.20
2022-09-28T09:33:24.392Z,5.30
2022-09-28T09:36:50.497Z,5.10
2022-09-28T09:40:00.609Z,7.60
2022-09-28T09:43:16.008Z,2.10
2022-09-28T09:45:59.297Z,2.40
2022-09-28T09:49:40.430Z,2.30
2022-09-28T09:52:44.392Z,2.40
2022-09-28T09:55:41.471Z,3.10
2022-09-28T09:59:11.936Z,2.80
2022-09-28T10:02:02.264Z,4.40
2022-09-28T10:04:46.224Z,6.90
2022-09-28T10:07:28.299Z,3.40
2022-09-28T10:10:01.746Z,2.50
2022-09-28T10:12:49.709Z,3.90
2022-09-28T10:15:24.862Z,6.00
2022-09-28T10:18:14.883Z,3.20
2022-09-28T10:21:00.936Z,2.00
2022-09-28T10:24:28.715Z,3.40
2022-09-28T10:29:37.252Z,4.10
2022-09-28T10:32:21.316Z,7.80
2022-09-28T10:34:51.985Z,5.20
2022-09-28T10:37:21.269Z,8.50
2022-09-28T10:40:44.222Z,5.00
2022-09-28T10:43:38.094Z,4.40
2022-09-28T10:46:21.355Z,4.20
2022-09-28T10:49:01.020Z,2.30
2022-09-28T10:54:21.146Z,4.20
2022-09-28T10:56:53.761Z,4.20
2022-09-28T10:59:30.571Z,2.90
2022-09-28T11:02:33.613Z,3.80
2022-09-28T11:05:27.465Z,7.30
2022-09-28T11:07:59.748Z,10.10
2022-09-28T11:10:32.967Z,3.80
2022-09-28T11:13:09.802Z,7.10
2022-09-28T11:15:41.736Z,6.00
2022-09-28T11:18:31.090Z,4.50
2022-09-28T11:21:19.080Z,8.60
2022-09-28T11:24:19.366Z,5.20
2022-09-28T11:26:52.443Z,4.30
2022-09-28T11:29:43.146Z,7.30
2022-09-28T11:32:16.255Z,4.50
2022-09-28T11:35:02.795Z,9.10
2022-09-28T11:38:21.412Z,10.20
2022-09-28T11:41:52.254Z,6.30
2022-09-28T11:44:38.626Z,5.00
2022-09-28T11:47:29.365Z,14.10
2022-09-28T11:50:06.126Z,10.20
2022-09-28T11:52:49.356Z,8.10
2022-09-28T11:55:43.344Z,2.90
2022-09-28T11:58:30.292Z,5.60
2022-09-28T12:01:21.158Z,9.40
2022-09-28T12:04:38.887Z,2.70
2022-09-28T12:07:23.063Z,3.50
2022-09-28T12:09:58.011Z,3.50
2022-09-28T12:12:37.016Z,3.10
2022-09-28T12:15:23.085Z,5.10
2022-09-28T12:18:10.709Z,3.50
2022-09-28T12:20:53.577Z,3.50
2022-09-28T12:23:33.599Z,3.20
2022-09-28T12:26:10.764Z,3.00
2022-09-28T12:28:48.918Z,3.20
2022-09-28T12:31:24.289Z,6.30
2022-09-28T12:33:52.056Z,3.10
2022-09-28T12:36:41.492Z,3.70
2022-09-28T12:40:03.120Z,3.50
2022-09-28T12:43:10.787Z,3.70
2022-09-28T12:46:10.446Z,7.20
2022-09-28T12:52:15.378Z,5.00
2022-09-28T12:55:21.553Z,3.20
2022-09-28T12:58:06.826Z,3.20
2022-09-28T13:01:13.341Z,3.20
2022-09-28T13:04:19.699Z,6.10
2022-09-28T13:07:05.961Z,4.50
2022-09-28T13:10:13.518Z,2.50
2022-09-28T13:13:14.638Z,4.40
2022-09-28T13:16:17.090Z,7.60
2022-09-28T13:18:56.815Z,7.00
2022-09-28T13:21:47.441Z,7.70
2022-09-28T13:24:33.061Z,4.40
2022-09-28T13:27:39.280Z,3.80
2022-09-28T13:30:07.995Z,7.40
2022-09-28T13:32:38.748Z,6.80
2022-09-28T13:35:06.464Z,3.90
2022-09-28T13:37:34.238Z,4.40
2022-09-28T13:40:05.778Z,4.10
2022-09-28T13:42:45.781Z,5.30
2022-09-28T13:45:22.228Z,8.80
2022-09-28T13:48:24.352Z,5.80
2022-09-28T13:51:06.825Z,5.80
2022-09-28T13:53:46.249Z,4.40
2022-09-28T13:57:03.016Z,6.20
2022-09-28T13:59:33.700Z,4.90
2022-09-28T14:02:26.307Z,5.50
2022-09-28T14:05:06.565Z,5.70
2022-09-28T14:07:33.840Z,11.00
2022-09-28T14:10:41.720Z,6.60
2022-09-28T14:13:09.834Z,4.10
2022-09-28T14:15:37.066Z,7.40
2022-09-28T14:18:28.004Z,5.00
2022-09-28T14:21:41.426Z,5.50
2022-09-28T14:24:52.778Z,3.50
2022-09-28T14:28:04.427Z,4.40
2022-09-28T14:30:37.673Z,4.90
2022-09-28T14:33:27.595Z,6.50
2022-09-28T14:36:01.879Z,3.60
2022-09-28T14:39:05.702Z,3.40
2022-09-28T14:41:41.514Z,5.30
2022-09-28T14:44:17.683Z,4.50
2022-09-28T14:46:46.822Z,4.10
2022-09-28T14:49:17.267Z,4.80
2022-09-28T14:52:03.096Z,3.20
2022-09-28T14:54:52.710Z,5.20
2022-09-28T14:57:28.481Z,7.10
2022-09-28T14:59:59.118Z,2.90
2022-09-28T15:02:32.017Z,3.80
2022-09-28T15:05:18.335Z,1.30
2022-09-28T15:07:51.750Z,3.00
2022-09-28T15:10:32.114Z,1.50
2022-09-28T15:13:03.275Z,1.80
2022-09-28T15:15:40.257Z,5.40
2022-09-28T15:18:33.707Z,4.00
2022-09-28T15:21:01.466Z,6.40
2022-09-28T15:23:39.737Z,2.60
2022-09-28T15:26:22.066Z,3.90
2022-09-28T15:28:49.499Z,3.00
2022-09-28T15:31:25.080Z,5.50
2022-09-28T15:34:11.829Z,4.20
2022-09-28T15:37:08.673Z,4.50
2022-09-28T15:39:36.177Z,7.20
2022-09-28T15:42:05.200Z,6.90
2022-09-28T15:44:36.631Z,8.70
2022-09-28T15:47:16.007Z,12.20
2022-09-28T15:49:56.755Z,2.70
2022-09-28T15:52:35.560Z,11.00
2022-09-28T15:55:16.665Z,9.20
2022-09-28T15:57:44.184Z,9.60
2022-09-28T16:00:20.883Z,4.50
2022-09-28T16:03:01.290Z,6.00
2022-09-28T16:05:35.260Z,8.30
2022-09-28T16:08:04.718Z,6.50
2022-09-28T16:10:34.686Z,10.20
2022-09-28T16:13:18.275Z,11.50
2022-09-28T16:15:45.856Z,7.60
2022-09-28T16:18:13.080Z,8.00
2022-09-28T16:20:40.748Z,11.30
2022-09-28T16:23:33.555Z,6.70
2022-09-28T16:26:16.153Z,15.40
2022-09-28T16:28:46.211Z,8.20
2022-09-28T16:31:13.610Z,12.70
2022-09-28T16:33:45.240Z,18.10
2022-09-28T16:36:16.760Z,20.10
2022-09-28T16:38:45.222Z,18.50
2022-09-28T16:41:15.899Z,18.90
2022-09-28T16:43:43.195Z,21.70
2022-09-28T16:46:14.014Z,18.90
2022-09-28T16:48:48.106Z,16.50
2022-09-28T16:51:16.794Z,18.50
2022-09-28T16:54:03.245Z,21.70
2022-09-28T16:56:34.198Z,21.80
2022-09-28T16:59:02.654Z,28.90
2022-09-28T17:01:31.000Z,18.60
2022-09-28T17:03:58.861Z,18.20
2022-09-28T17:06:26.967Z,19.60
2022-09-28T17:08:57.982Z,22.10
2022-09-28T17:11:26.076Z,15.70
2022-09-28T17:13:58.480Z,18.10
2022-09-28T17:17:03.821Z,16.70
2022-09-28T17:19:24.307Z,21.70
2022-09-28T17:21:52.310Z,19.80
2022-09-28T17:24:20.633Z,21.30
2022-09-28T17:26:50.842Z,18.80
2022-09-28T17:29:18.452Z,20.10
2022-09-28T17:31:46.915Z,25.60
2022-09-28T17:34:16.369Z,19.30
2022-09-28T17:36:44.953Z,13.40
2022-09-28T17:39:15.252Z,18.70
2022-09-28T17:41:45.807Z,16.80
2022-09-28T17:44:15.565Z,17.40
2022-09-28T17:46:48.503Z,22.00
2022-09-28T17:49:17.395Z,18.10
2022-09-28T17:51:45.339Z,21.50
2022-09-28T17:54:16.268Z,16.60
2022-09-28T17:56:43.817Z,15.20
2022-09-28T17:59:14.301Z,16.50
2022-09-28T18:01:43.380Z,24.00
2022-09-28T18:04:22.956Z,20.90
2022-09-28T18:06:55.567Z,17.80
2022-09-28T18:09:24.633Z,15.10
2022-09-28T18:11:59.831Z,12.90
2022-09-28T18:14:28.117Z,14.10
2022-09-28T18:16:56.379Z,18.00
2022-09-28T18:19:26.488Z,17.40
2022-09-28T18:21:57.936Z,16.50
2022-09-28T18:24:25.457Z,15.80
2022-09-28T18:26:52.821Z,17.20
2022-09-28T18:29:20.307Z,19.20
2022-09-28T18:31:48.398Z,18.40
2022-09-28T18:34:16.332Z,15.70
2022-09-28T18:36:43.868Z,16.40
2022-09-28T18:39:11.672Z,20.10
2022-09-28T18:41:39.353Z,19.90
2022-09-28T18:44:06.904Z,16.00
2022-09-28T18:46:36.123Z,15.00
2022-09-28T18:49:04.781Z,26.70
2022-09-28T18:51:33.005Z,17.10
2022-09-28T18:54:07.230Z,25.40
2022-09-28T18:56:36.872Z,16.40
2022-09-28T18:59:09.956Z,20.10
2022-09-28T19:01:41.226Z,18.40
2022-09-28T19:04:10.257Z,20.50
2022-09-28T19:06:40.329Z,30.50
2022-09-28T19:09:08.442Z,26.50
2022-09-28T19:11:36.146Z,22.40
2022-09-28T19:14:03.797Z,14.30
2022-09-28T19:16:33.708Z,18.10
2022-09-28T19:19:02.494Z,21.90
2022-09-28T19:21:30.815Z,23.60
2022-09-28T19:24:02.790Z,21.20
2022-09-28T19:26:32.414Z,18.70
2022-09-28T19:29:00.734Z,22.60
2022-09-28T19:31:29.833Z,25.20
2022-09-28T19:33:57.389Z,21.70
2022-09-28T19:36:27.945Z,22.50
2022-09-28T19:38:57.635Z,22.20
2022-09-28T19:41:43.146Z,29.90
2022-09-28T19:44:33.167Z,24.60
2022-09-28T19:47:11.261Z,19.50
2022-09-28T19:49:41.265Z,22.30
2022-09-28T19:52:16.994Z,21.90
2022-09-28T19:54:56.839Z,18.80
2022-09-28T19:57:32.380Z,21.40
2022-09-28T20:00:03.191Z,15.10
2022-09-28T20:02:34.844Z,10.00
2022-09-28T20:05:03.050Z,15.10
2022-09-28T20:07:33.194Z,11.10
2022-09-28T20:10:00.902Z,10.90
2022-09-28T20:12:28.641Z,12.60
2022-09-28T20:14:56.223Z,10.70
2022-09-28T20:17:23.776Z,10.10
2022-09-28T20:19:51.447Z,15.50
2022-09-28T20:22:19.657Z,10.90
2022-09-28T20:24:47.387Z,10.10
2022-09-28T20:27:14.832Z,12.90
2022-09-28T20:29:42.747Z,15.40
2022-09-28T20:32:11.758Z,12.40
2022-09-28T20:34:39.137Z,12.60
2022-09-28T20:37:06.880Z,13.80
2022-09-28T20:39:34.409Z,20.80
2022-09-28T20:42:02.454Z,19.50
2022-09-28T20:44:30.585Z,12.80
2022-09-28T20:46:58.468Z,13.30
2022-09-28T20:49:27.631Z,13.20
2022-09-28T20:51:55.376Z,11.60
2022-09-28T20:54:22.912Z,17.50
2022-09-28T20:56:50.465Z,12.00
2022-09-28T20:59:18.092Z,11.90
2022-09-28T21:01:45.715Z,12.30
2022-09-28T21:04:13.448Z,13.90
2022-09-28T21:06:41.982Z,10.30
2022-09-28T21:09:10.823Z,10.80
2022-09-28T21:11:39.161Z,9.20
2022-09-28T21:14:09.726Z,11.70
2022-09-28T21:16:37.967Z,13.50
2022-09-28T21:19:05.698Z,12.90
2022-09-28T21:21:33.455Z,9.80
2022-09-28T21:24:01.983Z,12.80
2022-09-28T21:26:30.655Z,9.90
2022-09-28T21:29:07.680Z,11.90
2022-09-28T21:31:54.616Z,9.40
2022-09-28T21:34:22.251Z,13.90
2022-09-28T21:36:50.879Z,13.10
2022-09-28T21:39:18.978Z,11.70
2022-09-28T21:41:46.750Z,11.50
2022-09-28T21:44:14.343Z,10.30
2022-09-28T21:46:42.297Z,12.20
2022-09-28T21:49:10.326Z,16.30
2022-09-28T21:51:38.028Z,17.10
2022-09-28T21:54:05.632Z,20.00
2022-09-28T21:56:33.575Z,17.70
2022-09-28T21:59:01.125Z,15.90
2022-09-28T22:01:31.266Z,17.40
2022-09-28T22:04:00.177Z,18.40
2022-09-28T22:06:27.721Z,16.40
2022-09-28T22:08:55.940Z,15.90
2022-09-28T22:11:26.369Z,14.60
2022-09-28T22:13:58.907Z,17.10
2022-09-28T22:16:30.226Z,13.50
2022-09-28T22:18:59.157Z,16.60
2022-09-28T22:21:31.392Z,18.80
2022-09-28T22:24:03.387Z,15.10
2022-09-28T22:26:33.552Z,15.60
2022-09-28T22:29:04.885Z,12.50
2022-09-28T22:31:38.987Z,14.40
2022-09-28T22:34:07.656Z,15.20
2022-09-28T22:36:35.739Z,20.10
2022-09-28T22:39:04.208Z,18.10
2022-09-28T22:41:31.743Z,23.70
2022-09-28T22:43:59.782Z,15.80
2022-09-28T22:46:31.409Z,15.70
2022-09-28T22:48:59.849Z,15.50
2022-09-28T22:51:29.129Z,15.70
2022-09-28T22:53:57.681Z,15.30
2022-09-28T22:56:26.344Z,11.50
2022-09-28T22:58:54.735Z,12.70
2022-09-28T23:01:29.412Z,15.80
2022-09-28T23:03:58.393Z,9.70
2022-09-28T23:06:30.644Z,8.40
2022-09-28T23:08:59.258Z,11.40
2022-09-28T23:11:28.650Z,10.60
2022-09-28T23:13:58.542Z,11.20
2022-09-28T23:16:29.477Z,14.00
2022-09-28T23:18:57.119Z,9.50
2022-09-28T23:21:26.755Z,11.00
2022-09-28T23:23:57.050Z,12.80
2022-09-28T23:26:28.257Z,9.20
2022-09-28T23:28:56.062Z,9.80
2022-09-28T23:31:27.523Z,9.00
2022-09-28T23:34:03.580Z,9.20
2022-09-28T23:36:31.739Z,9.10
2022-09-28T23:38:59.456Z,10.60
2022-09-28T23:41:27.217Z,12.70
2022-09-28T23:43:54.680Z,12.80
2022-09-28T23:46:22.090Z,13.40
2022-09-28T23:48:49.946Z,15.10
2022-09-28T23:51:17.356Z,13.50
2022-09-28T23:53:45.287Z,12.10
2022-09-28T23:56:14.139Z,12.40
2022-09-28T23:58:41.600Z,16.50
